Terminal Aerodrome Forecast
Issued by NWS

Home | Current Version | Previous Version | Graphics & Text | Print | Product List | Glossary On
Versions: 1 2 3 4 5 6 7 8 9 10 11 12 13 14 15 16 17 18 19 20 21 22 23 24 25 26 27 28 29 30 31 32 33 34 35 36 37 38 39 40 41 42
000
FTUS43 KGRB 241508 AAA
TAFATW
TAF AMD
KATW 241508Z 2415/2512 03018G25KT 3SM -FZDZ BR OVC007
      TEMPO 2415/2417 2SM -FZDZSN SCT007 OVC012
     FM241700 03020G30KT 3SM -FZDZSN OVC008
     FM250000 01013G23KT 2SM -FZDZSN OVC008
     FM250500 35012G21KT 3SM -SN OVC005
     FM250800 32010G18KT 6SM -SN OVC012=

USA.gov is the U.S. government's official web portal to all federal, state and local government web resources and services.